Airport View

Enter AWOS ICAO identifier for current METAR.

ex. KFNL

KMTJ 041453Z AUTO 00000KT 10SM CLR 22/08 A3026 RMK AO2 SLP160 T02220078 50004

4 Jul 2020 15:36

Frequency: 135.225

Phone: 970-249-1534

Other Area AWOS: KAJZ - KTEX - KAIB - KGUC

TAF KMTJ 041135Z 0412/0512 14006KT P6SM SCT120 SCT180 FM041600 VRB04KT P6SM SCT120 SCT180 FM041900 29008KT P6SM SCT110 FM042200 26010KT P6SM SCT100 FM050100 14010KT P6SM SCT100 FM050600 13006KT P6SM FEW100